createdAt,value
2023-05-20T00:00:19.093Z,10.00
2023-05-20T00:01:21.734Z,7.73
2023-05-20T00:02:24.559Z,11.10
2023-05-20T00:03:27.260Z,8.90
2023-05-20T00:04:29.723Z,10.60
2023-05-20T00:05:31.940Z,9.80
2023-05-20T00:06:34.040Z,9.90
2023-05-20T00:07:36.321Z,8.00
2023-05-20T00:08:38.524Z,10.50
2023-05-20T00:09:41.811Z,10.30
2023-05-20T00:10:44.117Z,10.10
2023-05-20T00:11:46.399Z,10.78
2023-05-20T00:12:48.703Z,10.30
2023-05-20T00:13:51.103Z,10.20
2023-05-20T00:14:55.228Z,9.70
2023-05-20T00:15:57.592Z,9.30
2023-05-20T00:17:00.055Z,9.60
2023-05-20T00:18:03.534Z,9.90
2023-05-20T00:19:05.993Z,11.00
2023-05-20T00:20:09.387Z,10.09
2023-05-20T00:21:11.784Z,9.64
2023-05-20T00:22:13.964Z,10.90
2023-05-20T00:23:16.176Z,7.90
2023-05-20T00:24:18.763Z,8.10
2023-05-20T00:25:20.908Z,8.90
2023-05-20T00:26:23.307Z,9.00
2023-05-20T00:27:27.924Z,9.40
2023-05-20T00:28:30.481Z,8.40
2023-05-20T00:29:33.485Z,9.50
2023-05-20T00:30:35.872Z,8.30
2023-05-20T00:31:38.439Z,8.70
2023-05-20T00:32:40.919Z,8.30
2023-05-20T00:33:43.177Z,8.10
2023-05-20T00:35:58.708Z,9.80
2023-05-20T00:37:01.092Z,8.30
2023-05-20T00:38:03.487Z,10.70
2023-05-20T00:39:05.588Z,9.20
2023-05-20T00:40:09.282Z,8.40
2023-05-20T00:41:11.725Z,8.40
2023-05-20T00:42:24.985Z,9.50
2023-05-20T00:43:27.378Z,8.10
2023-05-20T00:44:29.712Z,10.40
2023-05-20T00:45:32.375Z,10.80
2023-05-20T00:46:35.289Z,9.73
2023-05-20T00:47:38.264Z,7.80
2023-05-20T00:48:42.955Z,9.18
2023-05-20T00:49:49.625Z,9.50
2023-05-20T00:50:51.327Z,7.50
2023-05-20T00:51:53.832Z,10.18
2023-05-20T00:52:56.195Z,8.10
2023-05-20T00:53:58.631Z,9.40
2023-05-20T00:55:00.781Z,8.70
2023-05-20T00:56:04.640Z,7.60
2023-05-20T00:57:08.829Z,9.20
2023-05-20T00:58:11.818Z,9.00
2023-05-20T00:59:15.008Z,9.55
2023-05-20T01:00:17.487Z,8.10
2023-05-20T01:01:19.785Z,8.80
2023-05-20T01:02:23.038Z,8.90
2023-05-20T01:03:25.979Z,10.50
2023-05-20T01:04:28.482Z,8.73
2023-05-20T01:05:30.864Z,8.40
2023-05-20T01:06:33.260Z,9.20
2023-05-20T01:07:35.481Z,8.30
2023-05-20T01:08:37.836Z,8.80
2023-05-20T01:09:40.775Z,8.60
2023-05-20T01:10:46.793Z,8.27
2023-05-20T01:11:52.997Z,8.20
2023-05-20T01:12:59.013Z,8.20
2023-05-20T01:14:04.901Z,9.40
2023-05-20T01:15:14.163Z,9.40
2023-05-20T01:16:18.075Z,10.60
2023-05-20T01:17:21.485Z,8.70
2023-05-20T01:18:27.856Z,9.40
2023-05-20T01:19:43.946Z,9.40
2023-05-20T01:20:49.509Z,9.40
2023-05-20T01:21:53.631Z,8.30
2023-05-20T01:22:56.961Z,8.10
2023-05-20T01:23:59.761Z,7.10
2023-05-20T01:25:02.220Z,9.36
2023-05-20T01:26:05.660Z,8.00
2023-05-20T01:27:10.186Z,8.30
2023-05-20T01:28:12.698Z,9.00
2023-05-20T01:29:15.061Z,9.20
2023-05-20T01:30:17.888Z,8.20
2023-05-20T01:31:25.171Z,9.90
2023-05-20T01:32:37.797Z,9.10
2023-05-20T01:33:43.416Z,9.20
2023-05-20T01:34:52.014Z,9.10
2023-05-20T01:35:55.115Z,8.20
2023-05-20T01:36:57.874Z,9.20
2023-05-20T01:38:00.531Z,7.90
2023-05-20T01:39:02.848Z,9.80
2023-05-20T01:40:08.235Z,8.60
2023-05-20T01:41:12.157Z,7.90
2023-05-20T01:42:15.569Z,8.40
2023-05-20T01:43:17.880Z,8.90
2023-05-20T01:44:20.923Z,8.50
2023-05-20T01:45:25.016Z,8.60
2023-05-20T01:46:27.401Z,8.70
2023-05-20T01:47:29.694Z,8.50
2023-05-20T01:48:32.073Z,9.40
2023-05-20T01:49:34.736Z,7.20
2023-05-20T01:50:37.783Z,10.40
2023-05-20T01:51:40.225Z,8.30
2023-05-20T01:52:42.858Z,8.80
2023-05-20T01:53:44.958Z,9.60
2023-05-20T01:54:47.755Z,7.70
2023-05-20T01:55:50.232Z,8.27
2023-05-20T01:56:52.853Z,7.90
2023-05-20T01:57:57.468Z,7.30
2023-05-20T01:59:00.677Z,7.30
2023-05-20T02:00:03.847Z,8.00
2023-05-20T02:01:08.142Z,9.10
2023-05-20T02:02:11.069Z,7.90
2023-05-20T02:03:13.519Z,8.09
2023-05-20T02:04:16.096Z,8.50
2023-05-20T02:05:18.476Z,8.20
2023-05-20T02:06:20.763Z,8.30
2023-05-20T02:07:23.202Z,9.10
2023-05-20T02:08:27.825Z,9.20
2023-05-20T02:09:30.237Z,7.55
2023-05-20T02:10:32.620Z,8.90
2023-05-20T02:11:34.949Z,8.40
2023-05-20T02:12:37.250Z,8.40
2023-05-20T02:13:40.017Z,6.70
2023-05-20T02:15:53.754Z,9.30
2023-05-20T02:16:56.136Z,7.45
2023-05-20T02:17:58.521Z,7.30
2023-05-20T02:19:00.705Z,8.20
2023-05-20T02:20:04.580Z,9.00
2023-05-20T02:21:08.751Z,6.90
2023-05-20T02:22:11.664Z,7.00
2023-05-20T02:23:13.877Z,7.10
2023-05-20T02:24:17.075Z,7.80
2023-05-20T02:25:19.273Z,7.90
2023-05-20T02:26:22.147Z,6.90
2023-05-20T02:27:24.684Z,8.36
2023-05-20T02:28:27.389Z,7.80
2023-05-20T02:29:30.802Z,7.60
2023-05-20T02:30:33.125Z,6.70
2023-05-20T02:31:35.218Z,7.60
2023-05-20T02:32:38.781Z,8.90
2023-05-20T02:33:41.968Z,7.20
2023-05-20T02:34:44.060Z,8.10
2023-05-20T02:35:46.454Z,8.60
2023-05-20T02:36:49.414Z,8.20
2023-05-20T02:37:53.122Z,9.30
2023-05-20T02:38:55.515Z,7.90
2023-05-20T02:39:58.124Z,7.20
2023-05-20T02:41:00.241Z,7.60
2023-05-20T02:42:02.820Z,8.80
2023-05-20T02:43:05.564Z,8.55
2023-05-20T02:44:08.960Z,8.50
2023-05-20T02:45:11.193Z,7.80
2023-05-20T02:46:14.561Z,9.10
2023-05-20T02:47:16.909Z,10.20
2023-05-20T02:48:19.397Z,7.60
2023-05-20T02:49:21.723Z,8.10
2023-05-20T02:50:23.985Z,8.40
2023-05-20T02:51:26.412Z,6.70
2023-05-20T02:52:28.916Z,6.30
2023-05-20T02:53:31.333Z,7.40
2023-05-20T02:54:34.555Z,7.30
2023-05-20T02:55:37.379Z,7.30
2023-05-20T02:56:39.779Z,7.40
2023-05-20T02:57:42.514Z,7.90
2023-05-20T02:58:45.388Z,8.40
2023-05-20T02:59:48.035Z,8.90
2023-05-20T03:00:50.331Z,9.50
2023-05-20T03:01:52.816Z,8.80
2023-05-20T03:02:55.038Z,5.30
2023-05-20T03:03:57.409Z,9.10
2023-05-20T03:04:59.892Z,7.55
2023-05-20T03:06:02.172Z,7.80
2023-05-20T03:07:06.603Z,7.20
2023-05-20T03:08:09.857Z,7.10
2023-05-20T03:09:12.189Z,7.00
2023-05-20T03:10:15.462Z,8.40
2023-05-20T03:11:17.701Z,8.00
2023-05-20T03:12:19.936Z,9.40
2023-05-20T03:13:22.217Z,8.30
2023-05-20T03:14:24.559Z,8.90
2023-05-20T03:15:26.942Z,7.50
2023-05-20T03:16:29.375Z,6.30
2023-05-20T03:17:33.358Z,7.00
2023-05-20T03:18:35.698Z,7.10
2023-05-20T03:19:38.097Z,9.30
2023-05-20T03:20:40.399Z,8.70
2023-05-20T03:21:43.144Z,8.50
2023-05-20T03:22:45.480Z,8.60
2023-05-20T03:23:47.640Z,8.10
2023-05-20T03:24:50.081Z,8.10
2023-05-20T03:25:52.852Z,8.50
2023-05-20T03:26:55.413Z,8.36
2023-05-20T03:27:58.262Z,8.90
2023-05-20T03:29:00.533Z,7.80
2023-05-20T03:30:03.889Z,8.20
2023-05-20T03:31:06.915Z,8.80
2023-05-20T03:32:10.846Z,7.91
2023-05-20T03:33:13.448Z,8.70
2023-05-20T03:34:15.927Z,8.00
2023-05-20T03:35:19.667Z,8.00
2023-05-20T03:36:22.861Z,8.70
2023-05-20T03:37:25.752Z,8.73
2023-05-20T03:38:27.934Z,7.20
2023-05-20T03:39:30.256Z,8.80
2023-05-20T03:40:32.716Z,8.10
2023-05-20T03:41:35.318Z,6.30
2023-05-20T03:42:38.231Z,7.90
2023-05-20T03:43:40.757Z,8.00
2023-05-20T03:44:42.870Z,10.30
2023-05-20T03:45:45.121Z,7.90
2023-05-20T03:46:49.774Z,8.30
2023-05-20T03:47:52.775Z,8.18
2023-05-20T03:48:55.163Z,9.36
2023-05-20T03:49:57.510Z,7.10
2023-05-20T03:51:00.149Z,8.00
2023-05-20T03:52:02.426Z,6.80
2023-05-20T03:53:04.780Z,8.40
2023-05-20T03:54:08.954Z,6.10
2023-05-20T03:55:11.324Z,7.40
2023-05-20T03:56:13.851Z,7.30
2023-05-20T03:57:17.077Z,7.80
2023-05-20T03:58:19.665Z,7.73
2023-05-20T03:59:22.315Z,8.18
2023-05-20T04:00:25.228Z,6.70
2023-05-20T04:01:27.728Z,8.00
2023-05-20T04:02:30.394Z,8.50
2023-05-20T04:03:33.011Z,8.80
2023-05-20T04:04:35.917Z,7.30
2023-05-20T04:05:39.092Z,4.30
2023-05-20T04:06:43.359Z,8.20
2023-05-20T04:07:45.617Z,8.80
2023-05-20T04:08:48.370Z,9.70
2023-05-20T04:09:50.653Z,8.30
2023-05-20T04:10:57.054Z,9.70
2023-05-20T04:11:59.392Z,8.00
2023-05-20T04:13:01.596Z,8.80
2023-05-20T04:14:03.982Z,8.20
2023-05-20T04:15:06.974Z,8.90
2023-05-20T04:16:11.150Z,8.70
2023-05-20T04:17:13.252Z,9.20
2023-05-20T04:18:15.226Z,6.56
2023-05-20T04:19:17.681Z,8.11
2023-05-20T04:20:20.043Z,9.00
2023-05-20T04:21:23.700Z,6.50
2023-05-20T04:22:26.474Z,8.00
2023-05-20T04:23:28.602Z,7.00
2023-05-20T04:24:30.858Z,9.60
2023-05-20T04:25:33.397Z,8.40
2023-05-20T04:26:35.736Z,7.80
2023-05-20T04:27:38.062Z,7.70
2023-05-20T04:28:40.602Z,7.50
2023-05-20T04:29:43.528Z,8.30
2023-05-20T04:30:45.828Z,7.50
2023-05-20T04:31:48.228Z,7.10
2023-05-20T04:32:53.597Z,8.40
2023-05-20T04:33:56.969Z,6.90
2023-05-20T04:35:00.289Z,8.50
2023-05-20T04:36:03.432Z,8.70
2023-05-20T04:37:05.788Z,7.91
2023-05-20T04:38:08.649Z,8.80
2023-05-20T04:39:11.017Z,8.30
2023-05-20T04:40:13.900Z,6.70
2023-05-20T04:41:16.504Z,9.00
2023-05-20T04:42:19.558Z,7.64
2023-05-20T04:43:21.885Z,8.30
2023-05-20T04:44:24.545Z,9.00
2023-05-20T04:45:27.545Z,8.64
2023-05-20T04:46:29.937Z,8.91
2023-05-20T04:47:33.807Z,9.10
2023-05-20T04:48:36.225Z,9.27
2023-05-20T04:49:38.469Z,9.30
2023-05-20T04:50:42.557Z,6.60
2023-05-20T04:51:44.901Z,9.20
2023-05-20T04:52:47.383Z,10.00
2023-05-20T04:53:49.702Z,6.90
2023-05-20T04:54:52.804Z,8.80
2023-05-20T04:55:55.778Z,8.70
2023-05-20T04:56:59.165Z,8.70
2023-05-20T04:58:01.698Z,9.30
2023-05-20T04:59:04.134Z,7.50
2023-05-20T05:01:17.931Z,10.70
2023-05-20T05:02:20.625Z,10.20
2023-05-20T05:03:22.720Z,6.90
2023-05-20T05:04:25.394Z,8.40
2023-05-20T05:05:27.694Z,8.50
2023-05-20T05:06:30.005Z,10.00
2023-05-20T05:07:33.939Z,8.80
2023-05-20T05:08:36.158Z,7.20
2023-05-20T05:09:38.519Z,7.90
2023-05-20T05:10:41.230Z,7.60
2023-05-20T05:11:44.467Z,7.50
2023-05-20T05:12:47.477Z,8.80
2023-05-20T05:13:51.156Z,7.70
2023-05-20T05:14:54.788Z,9.50
2023-05-20T05:15:59.962Z,8.90
2023-05-20T05:17:02.919Z,10.00
2023-05-20T05:18:05.813Z,11.50
2023-05-20T05:19:11.916Z,9.30
2023-05-20T05:20:14.997Z,8.60
2023-05-20T05:21:17.757Z,7.30
2023-05-20T05:22:21.932Z,8.30
2023-05-20T05:23:24.708Z,8.82
2023-05-20T05:24:27.237Z,7.70
2023-05-20T05:25:29.639Z,8.30
2023-05-20T05:26:33.602Z,8.10
2023-05-20T05:27:37.266Z,8.50
2023-05-20T05:28:41.558Z,9.00
2023-05-20T05:29:45.140Z,10.00
2023-05-20T05:30:48.638Z,11.10
2023-05-20T05:31:51.255Z,10.40
2023-05-20T05:32:54.546Z,10.91
2023-05-20T05:33:57.521Z,11.40
2023-05-20T05:34:59.860Z,10.80
2023-05-20T05:36:03.736Z,9.60
2023-05-20T05:37:06.128Z,8.20
2023-05-20T05:38:09.075Z,8.20
2023-05-20T05:39:11.879Z,7.90
2023-05-20T05:40:17.051Z,8.40
2023-05-20T05:41:20.012Z,8.30
2023-05-20T05:42:22.787Z,8.18
2023-05-20T05:43:25.133Z,7.00
2023-05-20T05:44:27.562Z,9.40
2023-05-20T05:45:30.687Z,9.20
2023-05-20T05:46:34.517Z,8.40
2023-05-20T05:47:38.068Z,9.40
2023-05-20T05:48:40.515Z,7.70
2023-05-20T05:49:42.929Z,8.50
2023-05-20T05:50:46.215Z,8.30
2023-05-20T05:51:51.522Z,8.80
2023-05-20T05:52:54.274Z,8.30
2023-05-20T05:53:56.442Z,9.20
2023-05-20T05:54:58.707Z,8.00
2023-05-20T05:56:01.257Z,8.10
2023-05-20T05:57:06.388Z,8.60
2023-05-20T05:58:08.405Z,8.20
2023-05-20T05:59:10.766Z,7.80
2023-05-20T06:00:14.312Z,7.60
2023-05-20T06:01:22.095Z,8.00
2023-05-20T06:02:24.628Z,7.40
2023-05-20T06:03:27.473Z,7.60
2023-05-20T06:04:29.985Z,9.91
2023-05-20T06:05:33.216Z,8.30
2023-05-20T06:06:35.831Z,9.55
2023-05-20T06:07:38.721Z,8.90
2023-05-20T06:08:40.948Z,7.40
2023-05-20T06:09:44.109Z,7.50
2023-05-20T06:10:50.064Z,7.50
2023-05-20T06:11:52.596Z,7.60
2023-05-20T06:12:56.530Z,10.00
2023-05-20T06:14:02.392Z,8.20
2023-05-20T06:15:05.799Z,8.50
2023-05-20T06:16:08.732Z,7.60
2023-05-20T06:17:11.553Z,8.70
2023-05-20T06:18:14.562Z,6.45
2023-05-20T06:19:17.452Z,6.70
2023-05-20T06:20:20.564Z,9.10
2023-05-20T06:21:23.465Z,8.00
2023-05-20T06:22:26.453Z,9.00
2023-05-20T06:23:28.853Z,7.91
2023-05-20T06:24:34.406Z,7.20
2023-05-20T06:25:37.163Z,8.30
2023-05-20T06:26:39.388Z,7.90
2023-05-20T06:27:42.097Z,7.60
2023-05-20T06:28:46.072Z,8.00
2023-05-20T06:29:48.988Z,7.09
2023-05-20T06:30:51.316Z,7.60
2023-05-20T06:31:53.602Z,7.50
2023-05-20T06:32:56.049Z,7.90
2023-05-20T06:33:58.640Z,9.10
2023-05-20T06:35:01.492Z,0.60
2023-05-20T06:36:03.858Z,6.50
2023-05-20T06:37:07.208Z,5.90
2023-05-20T06:38:10.731Z,7.60
2023-05-20T06:39:13.320Z,7.10
2023-05-20T06:40:17.518Z,7.00
2023-05-20T06:41:19.731Z,7.30
2023-05-20T06:42:22.487Z,7.00
2023-05-20T06:43:26.732Z,7.80
2023-05-20T06:44:31.114Z,7.50
2023-05-20T06:45:38.463Z,7.60
2023-05-20T06:46:42.718Z,6.10
2023-05-20T06:47:47.143Z,8.60
2023-05-20T06:48:49.433Z,8.30
2023-05-20T06:49:52.499Z,7.27
2023-05-20T06:50:54.710Z,9.60
2023-05-20T06:51:57.028Z,9.00
2023-05-20T06:53:00.178Z,9.50
2023-05-20T06:54:02.580Z,8.70
2023-05-20T06:55:06.482Z,7.80
2023-05-20T06:56:10.524Z,7.90
2023-05-20T06:57:12.803Z,9.40
2023-05-20T06:58:16.670Z,6.40
2023-05-20T06:59:18.988Z,7.40
2023-05-20T07:00:21.434Z,8.80
2023-05-20T07:01:23.774Z,7.70
2023-05-20T07:02:26.617Z,8.40
2023-05-20T07:03:29.138Z,8.91
2023-05-20T07:04:32.075Z,8.91
2023-05-20T07:05:34.303Z,8.80
2023-05-20T07:06:36.989Z,8.30
2023-05-20T07:07:39.113Z,9.20
2023-05-20T07:08:41.884Z,7.70
2023-05-20T07:09:44.874Z,9.73
2023-05-20T07:10:47.395Z,9.00
2023-05-20T07:11:51.629Z,8.70
2023-05-20T07:12:54.314Z,8.20
2023-05-20T07:13:56.699Z,8.00
2023-05-20T07:15:00.299Z,7.60
2023-05-20T07:16:04.803Z,9.30
2023-05-20T07:17:07.842Z,8.70
2023-05-20T07:18:10.095Z,9.30
2023-05-20T07:19:12.984Z,8.60
2023-05-20T07:20:16.660Z,9.10
2023-05-20T07:21:19.777Z,9.60
2023-05-20T07:22:40.735Z,10.00
2023-05-20T07:23:50.446Z,9.40
2023-05-20T07:24:52.725Z,7.90
2023-05-20T07:25:55.529Z,8.80
2023-05-20T07:26:58.617Z,7.60
2023-05-20T07:28:01.604Z,8.55
2023-05-20T07:29:04.958Z,7.40
2023-05-20T07:30:09.299Z,7.00
2023-05-20T07:31:12.917Z,8.00
2023-05-20T07:32:17.175Z,10.10
2023-05-20T07:33:20.803Z,8.20
2023-05-20T07:34:24.245Z,8.00
2023-05-20T07:35:26.960Z,7.30
2023-05-20T07:36:30.126Z,7.70
2023-05-20T07:37:34.344Z,7.50
2023-05-20T07:38:39.491Z,9.45
2023-05-20T07:39:43.723Z,8.80
2023-05-20T07:40:46.286Z,8.91
2023-05-20T07:41:51.527Z,9.80
2023-05-20T07:42:54.988Z,8.20
2023-05-20T07:43:57.307Z,7.30
2023-05-20T07:44:59.679Z,6.80
2023-05-20T07:46:03.286Z,7.80
2023-05-20T07:47:05.529Z,8.90
2023-05-20T07:48:09.168Z,8.00
2023-05-20T07:49:11.905Z,7.00
2023-05-20T07:50:15.070Z,7.40
2023-05-20T07:51:17.436Z,7.60
2023-05-20T07:52:19.847Z,7.30
2023-05-20T07:53:22.161Z,7.10
2023-05-20T07:54:24.846Z,6.70
2023-05-20T07:55:28.687Z,6.70
2023-05-20T07:56:32.071Z,7.00
2023-05-20T07:57:34.748Z,6.50
2023-05-20T07:58:37.358Z,8.00
2023-05-20T07:59:39.891Z,8.30
2023-05-20T08:00:43.766Z,7.90
2023-05-20T08:01:46.657Z,6.10
2023-05-20T08:02:50.863Z,7.70
2023-05-20T08:03:55.740Z,7.30
2023-05-20T08:04:59.980Z,6.40
2023-05-20T08:06:02.790Z,6.30
2023-05-20T08:07:06.237Z,6.30
2023-05-20T08:08:13.117Z,5.80
2023-05-20T08:09:17.273Z,6.90
2023-05-20T08:10:21.743Z,7.00
2023-05-20T08:11:24.732Z,5.40
2023-05-20T08:12:27.357Z,5.30
2023-05-20T08:13:29.672Z,6.30
2023-05-20T08:14:31.873Z,5.30
2023-05-20T08:15:36.123Z,5.30
2023-05-20T08:16:38.634Z,4.90
2023-05-20T08:17:41.745Z,6.10
2023-05-20T08:18:44.912Z,5.50
2023-05-20T08:19:48.346Z,5.90
2023-05-20T08:20:51.018Z,5.10
2023-05-20T08:21:53.211Z,5.30
2023-05-20T08:22:55.483Z,5.20
2023-05-20T08:23:57.760Z,5.50
2023-05-20T08:25:00.044Z,5.80
2023-05-20T08:26:02.556Z,6.50
2023-05-20T08:27:06.694Z,4.64
2023-05-20T08:28:09.064Z,5.00
2023-05-20T08:29:12.305Z,5.00
2023-05-20T08:30:14.890Z,4.70
2023-05-20T08:31:17.948Z,5.10
2023-05-20T08:32:21.370Z,5.10
2023-05-20T08:33:24.641Z,6.40
2023-05-20T08:34:27.424Z,4.60
2023-05-20T08:35:30.770Z,5.45
2023-05-20T08:36:34.406Z,5.40
2023-05-20T08:37:37.717Z,4.80
2023-05-20T08:38:40.207Z,4.90
2023-05-20T08:39:43.567Z,5.70
2023-05-20T08:40:47.877Z,4.80
2023-05-20T08:41:50.827Z,3.60
2023-05-20T08:42:53.357Z,4.10
2023-05-20T08:43:58.649Z,4.90
2023-05-20T08:45:02.357Z,5.00
2023-05-20T08:46:06.488Z,5.20
2023-05-20T08:47:10.261Z,3.60
2023-05-20T08:48:13.050Z,5.20
2023-05-20T08:49:15.325Z,5.64
2023-05-20T08:50:17.627Z,6.40
2023-05-20T08:51:21.692Z,5.70
2023-05-20T08:52:25.840Z,6.00
2023-05-20T08:53:28.136Z,5.40
2023-05-20T08:54:33.840Z,3.90
2023-05-20T08:55:44.924Z,4.90
2023-05-20T08:56:47.707Z,3.90
2023-05-20T08:57:50.689Z,4.20
2023-05-20T08:58:53.604Z,5.00
2023-05-20T08:59:55.900Z,5.91
2023-05-20T09:00:58.236Z,7.20
2023-05-20T09:02:01.009Z,0.20
2023-05-20T09:03:04.613Z,5.45
2023-05-20T09:04:06.921Z,5.70
2023-05-20T09:05:11.487Z,4.20
2023-05-20T09:06:17.455Z,5.20
2023-05-20T09:08:36.942Z,4.10
2023-05-20T09:09:39.143Z,2.80
2023-05-20T09:10:42.276Z,4.60
2023-05-20T09:11:45.100Z,3.64
2023-05-20T09:12:47.463Z,3.36
2023-05-20T09:13:50.162Z,3.90
2023-05-20T09:14:52.259Z,4.50
2023-05-20T09:15:54.932Z,3.10
2023-05-20T09:16:57.157Z,3.00
2023-05-20T09:18:00.577Z,4.10
2023-05-20T09:19:05.842Z,1.10
2023-05-20T09:20:10.142Z,4.10
2023-05-20T09:21:12.946Z,4.30
2023-05-20T09:22:15.666Z,4.18
2023-05-20T09:23:19.722Z,2.80
2023-05-20T09:24:25.863Z,4.50
2023-05-20T09:25:28.686Z,3.90
2023-05-20T09:26:31.243Z,3.40
2023-05-20T09:27:33.632Z,4.80
2023-05-20T09:28:35.862Z,3.20
2023-05-20T09:29:38.155Z,4.30
2023-05-20T09:30:42.422Z,4.30
2023-05-20T09:31:45.890Z,3.30
2023-05-20T09:32:57.277Z,3.90
2023-05-20T09:35:13.384Z,3.40
2023-05-20T09:36:16.636Z,3.70
2023-05-20T09:37:22.277Z,3.70
2023-05-20T09:38:25.256Z,4.40
2023-05-20T09:39:31.670Z,3.45
2023-05-20T09:40:34.375Z,4.70
2023-05-20T09:43:03.432Z,3.70
2023-05-20T09:44:06.281Z,3.10
2023-05-20T09:45:09.208Z,4.10
2023-05-20T09:46:13.706Z,3.10
2023-05-20T09:47:17.329Z,4.20
2023-05-20T09:48:19.903Z,4.10
2023-05-20T09:49:24.194Z,4.20
2023-05-20T09:50:27.944Z,4.60
2023-05-20T09:51:31.092Z,4.10
2023-05-20T09:52:35.735Z,3.70
2023-05-20T09:53:38.791Z,3.20
2023-05-20T09:54:42.468Z,3.55
2023-05-20T09:55:46.040Z,4.20
2023-05-20T09:56:49.104Z,4.40
2023-05-20T09:57:53.767Z,3.18
2023-05-20T09:58:58.701Z,3.70
2023-05-20T10:00:02.420Z,3.50
2023-05-20T10:01:06.737Z,5.00
2023-05-20T10:02:09.818Z,2.90
2023-05-20T10:03:12.639Z,4.90
2023-05-20T10:04:17.057Z,3.27
2023-05-20T10:05:29.332Z,3.50
2023-05-20T10:06:44.479Z,3.70
2023-05-20T10:08:16.207Z,3.90
2023-05-20T10:10:47.369Z,4.40
2023-05-20T10:12:08.493Z,4.60
2023-05-20T10:13:29.724Z,3.90
2023-05-20T10:14:35.519Z,4.40
2023-05-20T10:16:09.316Z,3.60
2023-05-20T10:17:27.670Z,4.00
2023-05-20T10:18:45.975Z,4.50
2023-05-20T10:19:48.558Z,4.10
2023-05-20T10:20:51.132Z,3.30
2023-05-20T10:21:58.308Z,4.40
2023-05-20T10:23:00.623Z,4.10
2023-05-20T10:24:07.130Z,3.36
2023-05-20T10:25:12.194Z,3.00
2023-05-20T10:26:15.064Z,3.30
2023-05-20T10:27:18.120Z,2.80
2023-05-20T10:28:31.693Z,3.60
2023-05-20T10:31:02.521Z,4.20
2023-05-20T10:32:04.890Z,3.30
2023-05-20T10:33:07.630Z,3.00
2023-05-20T10:35:24.249Z,4.00
2023-05-20T10:36:28.080Z,2.90
2023-05-20T10:37:33.158Z,4.30
2023-05-20T10:38:35.400Z,3.50
2023-05-20T10:39:38.197Z,3.80
2023-05-20T10:40:40.456Z,3.50
2023-05-20T10:41:42.848Z,3.60
2023-05-20T10:42:45.126Z,4.10
2023-05-20T10:43:47.338Z,2.70
2023-05-20T10:44:50.162Z,4.40
2023-05-20T10:45:54.635Z,3.60
2023-05-20T10:47:21.022Z,3.80
2023-05-20T10:48:08.016Z,3.80
2023-05-20T10:49:20.564Z,3.70
2023-05-20T10:51:46.363Z,3.70
2023-05-20T10:52:49.233Z,4.80
2023-05-20T10:53:55.569Z,4.00
2023-05-20T10:54:59.836Z,4.30
2023-05-20T10:56:03.692Z,3.50
2023-05-20T10:57:06.937Z,4.00
2023-05-20T10:58:10.137Z,4.10
2023-05-20T10:59:12.538Z,4.00
2023-05-20T11:00:16.676Z,3.09
2023-05-20T11:01:23.572Z,3.80
2023-05-20T11:02:27.155Z,3.10
2023-05-20T11:03:30.634Z,4.10
2023-05-20T11:04:33.312Z,4.70
2023-05-20T11:05:35.935Z,3.30
2023-05-20T11:06:38.030Z,4.00
2023-05-20T11:07:40.220Z,3.20
2023-05-20T11:08:43.076Z,3.40
2023-05-20T11:09:50.572Z,3.09
2023-05-20T11:10:55.577Z,4.00
2023-05-20T11:11:58.573Z,4.20
2023-05-20T11:13:02.143Z,3.18
2023-05-20T11:14:04.435Z,4.80
2023-05-20T11:15:07.324Z,4.40
2023-05-20T11:16:10.463Z,3.70
2023-05-20T11:17:12.578Z,4.80
2023-05-20T11:18:16.261Z,4.30
2023-05-20T11:19:19.502Z,4.90
2023-05-20T11:21:32.979Z,5.10
2023-05-20T11:22:35.223Z,5.10
2023-05-20T11:23:40.581Z,3.50
2023-05-20T11:24:42.956Z,4.30
2023-05-20T11:25:45.808Z,3.09
2023-05-20T11:26:48.072Z,3.45
2023-05-20T11:27:50.789Z,4.00
2023-05-20T11:28:53.018Z,3.80
2023-05-20T11:29:55.269Z,4.20
2023-05-20T11:30:57.589Z,2.90
2023-05-20T11:32:00.355Z,4.30
2023-05-20T11:33:03.838Z,4.00
2023-05-20T11:34:06.560Z,3.30
2023-05-20T11:36:31.042Z,4.30
2023-05-20T11:37:35.860Z,4.20
2023-05-20T11:38:40.661Z,5.10
2023-05-20T11:39:43.352Z,4.00
2023-05-20T11:40:54.139Z,3.91
2023-05-20T11:41:57.894Z,4.20
2023-05-20T11:43:01.366Z,4.70
2023-05-20T11:44:04.062Z,5.20
2023-05-20T11:45:08.554Z,4.60
2023-05-20T11:46:11.404Z,4.80
2023-05-20T11:47:13.693Z,4.10
2023-05-20T11:48:15.792Z,4.60
2023-05-20T11:49:18.524Z,5.40
2023-05-20T11:50:21.736Z,4.20
2023-05-20T11:51:26.391Z,4.40
2023-05-20T11:52:29.456Z,4.10
2023-05-20T11:53:31.759Z,3.70
2023-05-20T11:54:35.620Z,5.00
2023-05-20T11:55:58.550Z,4.00
2023-05-20T11:57:01.685Z,3.60
2023-05-20T11:58:03.899Z,4.20
2023-05-20T11:59:08.014Z,5.20
2023-05-20T12:00:11.028Z,4.50
2023-05-20T12:01:21.632Z,4.70
2023-05-20T12:02:17.852Z,4.50
2023-05-20T12:03:20.811Z,4.90
2023-05-20T12:04:23.270Z,4.91
2023-05-20T12:05:25.692Z,5.10
2023-05-20T12:06:27.918Z,5.00
2023-05-20T12:07:30.059Z,4.90
2023-05-20T12:08:32.340Z,4.60
2023-05-20T12:09:34.920Z,4.70
2023-05-20T12:10:37.757Z,5.00
2023-05-20T12:11:40.365Z,3.60
2023-05-20T12:12:44.417Z,3.50
2023-05-20T12:13:47.204Z,4.60
2023-05-20T12:14:50.532Z,3.70
2023-05-20T12:15:53.005Z,4.40
2023-05-20T12:16:55.323Z,4.30
2023-05-20T12:17:57.944Z,4.90
2023-05-20T12:19:00.944Z,4.40
2023-05-20T12:20:03.710Z,3.90
2023-05-20T12:21:06.100Z,4.80
2023-05-20T12:22:08.887Z,4.30
2023-05-20T12:23:11.179Z,2.80
2023-05-20T12:24:13.650Z,4.40
2023-05-20T12:25:18.755Z,3.60
2023-05-20T12:26:21.076Z,3.70
2023-05-20T12:27:23.922Z,4.20
2023-05-20T12:28:26.387Z,5.27
2023-05-20T12:29:28.929Z,5.80
2023-05-20T12:30:31.215Z,5.20
2023-05-20T12:31:34.863Z,2.80
2023-05-20T12:32:38.512Z,4.30
2023-05-20T12:33:40.811Z,4.60
2023-05-20T12:34:43.399Z,5.20
2023-05-20T12:35:45.599Z,4.10
2023-05-20T12:36:48.016Z,4.20
2023-05-20T12:37:50.735Z,3.50
2023-05-20T12:38:52.918Z,3.30
2023-05-20T12:39:56.283Z,4.30
2023-05-20T12:40:58.577Z,2.60
2023-05-20T12:42:01.438Z,4.00
2023-05-20T12:43:04.757Z,3.64
2023-05-20T12:44:07.567Z,3.50
2023-05-20T12:45:10.213Z,4.73
2023-05-20T12:46:13.109Z,3.00
2023-05-20T12:47:15.980Z,3.90
2023-05-20T12:48:18.716Z,3.18
2023-05-20T12:49:22.083Z,3.36
2023-05-20T12:50:24.594Z,3.80
2023-05-20T12:51:26.893Z,2.80
2023-05-20T12:52:29.123Z,2.80
2023-05-20T12:53:32.185Z,2.50
2023-05-20T12:54:34.547Z,2.50
2023-05-20T12:55:36.745Z,2.80
2023-05-20T12:56:39.049Z,0.80
2023-05-20T12:57:43.973Z,2.80
2023-05-20T12:58:46.218Z,4.20
2023-05-20T12:59:48.533Z,2.60
2023-05-20T13:00:50.834Z,2.80
2023-05-20T13:01:53.141Z,2.50
2023-05-20T13:02:55.486Z,1.80
2023-05-20T13:03:58.057Z,2.70
2023-05-20T13:05:00.478Z,2.30
2023-05-20T13:06:04.718Z,3.10
2023-05-20T13:07:07.000Z,3.40
2023-05-20T13:08:09.385Z,2.90
2023-05-20T13:09:12.174Z,2.50
2023-05-20T13:10:16.174Z,3.50
2023-05-20T13:11:18.570Z,2.80
2023-05-20T13:12:20.742Z,1.90
2023-05-20T13:13:24.217Z,1.90
2023-05-20T13:14:26.464Z,3.50
2023-05-20T13:15:28.761Z,3.50
2023-05-20T13:16:31.205Z,2.50
2023-05-20T13:17:34.089Z,3.30
2023-05-20T13:18:36.716Z,1.36
2023-05-20T13:19:39.420Z,2.90
2023-05-20T13:20:44.618Z,2.30
2023-05-20T13:21:47.485Z,3.20
2023-05-20T13:22:49.831Z,1.73
2023-05-20T13:23:51.935Z,2.30
2023-05-20T13:24:54.049Z,2.80
2023-05-20T13:25:56.767Z,2.10
2023-05-20T13:26:59.069Z,2.20
2023-05-20T13:28:01.243Z,2.10
2023-05-20T13:29:04.486Z,2.60
2023-05-20T13:30:07.842Z,3.00
2023-05-20T13:31:10.816Z,2.60
2023-05-20T13:32:13.148Z,3.18
2023-05-20T13:33:15.443Z,1.60
2023-05-20T13:34:17.700Z,2.00
2023-05-20T13:35:20.449Z,2.30
2023-05-20T13:36:23.174Z,3.00
2023-05-20T13:37:25.552Z,2.50
2023-05-20T13:38:27.750Z,3.60
2023-05-20T13:39:29.934Z,2.70
2023-05-20T13:40:32.431Z,2.80
2023-05-20T13:41:34.467Z,2.50
2023-05-20T13:42:36.809Z,2.40
2023-05-20T13:43:38.843Z,2.00
2023-05-20T13:44:41.632Z,3.60
2023-05-20T13:45:44.930Z,2.64
2023-05-20T13:46:47.329Z,3.30
2023-05-20T13:47:49.515Z,2.90
2023-05-20T13:48:52.260Z,0.80
2023-05-20T13:49:54.442Z,2.30
2023-05-20T13:50:56.612Z,2.90
2023-05-20T13:51:58.834Z,3.60
2023-05-20T13:53:01.108Z,2.50
2023-05-20T13:54:03.559Z,2.20
2023-05-20T13:55:06.790Z,1.90
2023-05-20T13:56:10.349Z,2.30
2023-05-20T13:57:13.266Z,2.00
2023-05-20T13:58:15.304Z,2.00
2023-05-20T13:59:17.386Z,2.10
2023-05-20T14:00:20.596Z,1.70
2023-05-20T14:01:22.930Z,2.73
2023-05-20T14:02:26.413Z,2.20
2023-05-20T14:03:28.853Z,2.80
2023-05-20T14:04:31.103Z,2.80
2023-05-20T14:05:35.208Z,2.30
2023-05-20T14:06:39.026Z,1.80
2023-05-20T14:07:41.323Z,2.50
2023-05-20T14:08:44.582Z,1.80
2023-05-20T14:09:46.910Z,2.20
2023-05-20T14:10:49.079Z,2.00
2023-05-20T14:11:51.835Z,3.70
2023-05-20T14:12:56.791Z,1.82
2023-05-20T14:13:58.969Z,2.00
2023-05-20T14:15:02.125Z,2.00
2023-05-20T14:16:05.192Z,2.00
2023-05-20T14:17:07.639Z,1.50
2023-05-20T14:18:10.306Z,1.60